createdAt,value
2022-12-17T14:56:39.801Z,65.37
2022-12-17T14:59:34.424Z,63.01
2022-12-17T15:02:26.987Z,63.23
2022-12-17T15:05:17.613Z,63.02
2022-12-17T15:08:07.530Z,60.65
2022-12-17T15:11:01.304Z,58.71
2022-12-17T15:14:27.216Z,60.48
2022-12-17T15:17:16.694Z,59.65
2022-12-17T15:20:05.335Z,60.05
2022-12-17T15:22:57.040Z,58.57
2022-12-17T15:25:47.163Z,57.42
2022-12-17T15:28:36.350Z,59.27
2022-12-17T15:31:30.615Z,58.50
2022-12-17T15:34:26.333Z,59.90
2022-12-17T15:37:23.979Z,58.67
2022-12-17T15:40:15.472Z,57.63
2022-12-17T15:43:12.202Z,56.55
2022-12-17T15:46:03.227Z,55.77
2022-12-17T15:48:55.872Z,56.65
2022-12-17T15:51:46.931Z,56.04
2022-12-17T15:54:46.553Z,57.32
2022-12-17T15:57:36.067Z,56.81
2022-12-17T16:00:24.817Z,54.87
2022-12-17T16:03:13.791Z,54.78
2022-12-17T16:06:04.498Z,56.03
2022-12-17T16:08:53.344Z,54.64
2022-12-17T16:11:41.773Z,53.37
2022-12-17T16:14:30.772Z,52.87
2022-12-17T16:17:19.006Z,53.15
2022-12-17T16:20:09.582Z,53.54
2022-12-17T16:23:02.519Z,52.79
2022-12-17T16:26:21.301Z,52.63
2022-12-17T16:29:10.963Z,53.93
2022-12-17T16:32:10.061Z,50.18
2022-12-17T16:34:59.650Z,49.92
2022-12-17T16:37:49.606Z,50.76
2022-12-17T16:40:45.125Z,50.39
2022-12-17T16:43:37.457Z,51.16
2022-12-17T16:46:37.404Z,50.12
2022-12-17T16:49:27.440Z,51.75
2022-12-17T16:52:19.165Z,49.88
2022-12-17T16:55:14.157Z,50.30
2022-12-17T16:58:04.815Z,49.83
2022-12-17T17:00:59.704Z,51.54
2022-12-17T17:03:50.857Z,49.78
2022-12-17T17:06:43.483Z,48.63
2022-12-17T17:09:38.083Z,51.66
2022-12-17T17:12:28.487Z,51.00
2022-12-17T17:15:23.928Z,54.23
2022-12-17T17:18:18.001Z,54.46
2022-12-17T17:21:26.553Z,52.33
2022-12-17T17:24:21.583Z,51.99
2022-12-17T17:27:13.578Z,53.50
2022-12-17T17:30:17.947Z,53.14
2022-12-17T17:33:08.857Z,51.47
2022-12-17T17:36:05.994Z,49.46
2022-12-17T17:39:00.598Z,50.21
2022-12-17T17:41:50.102Z,48.31
2022-12-17T17:44:40.241Z,48.02
2022-12-17T17:47:30.548Z,48.92
2022-12-17T17:50:21.162Z,46.72
2022-12-17T17:53:11.863Z,48.56
2022-12-17T17:56:05.882Z,45.42
2022-12-17T17:58:57.725Z,44.85
2022-12-17T18:01:48.460Z,48.16
2022-12-17T18:04:38.600Z,49.61
2022-12-17T18:07:29.538Z,49.69
2022-12-17T18:10:19.013Z,47.68
2022-12-17T18:13:25.015Z,47.65
2022-12-17T18:16:16.308Z,52.15
2022-12-17T18:19:09.662Z,52.54
2022-12-17T18:21:58.962Z,50.26
2022-12-17T18:24:52.146Z,49.09
2022-12-17T18:27:44.048Z,45.85
2022-12-17T18:30:39.821Z,45.15
2022-12-17T18:33:31.925Z,47.87
2022-12-17T18:36:24.196Z,44.64
2022-12-17T18:39:16.914Z,45.15
2022-12-17T18:42:32.264Z,44.62
2022-12-17T18:45:25.173Z,44.72
2022-12-17T18:48:14.135Z,47.10
2022-12-17T18:51:09.348Z,47.80
2022-12-17T18:54:01.294Z,47.06
2022-12-17T18:57:01.034Z,45.05
2022-12-17T18:59:52.102Z,44.42
2022-12-17T19:02:41.422Z,42.58
2022-12-17T19:05:30.264Z,44.65
2022-12-17T19:08:19.015Z,44.81
2022-12-17T19:11:08.066Z,43.94
2022-12-17T19:13:56.783Z,45.05
2022-12-17T19:16:46.976Z,43.76
2022-12-17T19:19:36.082Z,45.20
2022-12-17T19:22:24.967Z,42.18
2022-12-17T19:25:14.108Z,42.39
2022-12-17T19:28:03.373Z,42.95
2022-12-17T19:30:58.820Z,42.75
2022-12-17T19:33:49.617Z,42.40
2022-12-17T19:36:39.335Z,43.86
2022-12-17T19:39:28.164Z,46.52
2022-12-17T19:42:36.831Z,45.19
2022-12-17T19:45:38.118Z,46.03
2022-12-17T19:48:33.671Z,45.66
2022-12-17T19:51:25.295Z,43.33
2022-12-17T19:54:15.452Z,42.12
2022-12-17T19:57:04.846Z,42.48
2022-12-17T19:59:55.692Z,42.34
2022-12-17T20:02:44.666Z,44.54
2022-12-17T20:05:34.446Z,44.20
2022-12-17T20:08:26.032Z,45.96
2022-12-17T20:11:37.010Z,45.50
2022-12-17T20:14:31.055Z,46.83
2022-12-17T20:17:20.739Z,46.45
2022-12-17T20:20:10.597Z,46.08
2022-12-17T20:23:05.068Z,43.94
2022-12-17T20:26:04.980Z,42.19
2022-12-17T20:28:59.226Z,41.76
2022-12-17T20:31:51.654Z,42.16
2022-12-17T20:34:40.716Z,42.65
2022-12-17T20:37:29.562Z,44.61
2022-12-17T20:40:18.989Z,45.07
2022-12-17T20:43:09.652Z,43.10
2022-12-17T20:45:58.682Z,43.03
2022-12-17T20:48:47.808Z,41.31
2022-12-17T20:51:39.855Z,41.22
2022-12-17T20:54:29.371Z,41.44
2022-12-17T20:57:19.046Z,43.16
2022-12-17T21:00:10.902Z,41.87
2022-12-17T21:02:59.839Z,41.92
2022-12-17T21:05:51.366Z,42.69
2022-12-17T21:08:46.223Z,41.45
2022-12-17T21:11:39.473Z,39.75
2022-12-17T21:14:33.670Z,41.31
2022-12-17T21:17:30.043Z,43.32
2022-12-17T21:20:20.580Z,41.24
2022-12-17T21:23:11.363Z,41.59
2022-12-17T21:26:03.335Z,41.86
2022-12-17T21:29:06.565Z,40.93
2022-12-17T21:31:56.274Z,45.82
2022-12-17T21:34:47.078Z,46.93
2022-12-17T21:37:36.444Z,45.91
2022-12-17T21:40:25.077Z,45.04
2022-12-17T21:43:14.976Z,46.99
2022-12-17T21:46:03.892Z,45.95
2022-12-17T21:48:53.975Z,50.13
2022-12-17T21:51:44.748Z,49.23
2022-12-17T21:54:34.195Z,51.20
2022-12-17T21:57:23.042Z,50.53
2022-12-17T22:00:13.585Z,48.91
2022-12-17T22:03:02.517Z,48.72
2022-12-17T22:05:52.115Z,50.71
2022-12-17T22:08:43.987Z,52.67
2022-12-17T22:11:35.684Z,51.82
2022-12-17T22:14:24.087Z,52.80
2022-12-17T22:17:13.244Z,51.64
2022-12-17T22:20:01.936Z,51.62
2022-12-17T22:22:51.546Z,52.95
2022-12-17T22:25:42.017Z,54.24
2022-12-17T22:28:31.056Z,51.02
2022-12-17T22:31:39.747Z,45.20
2022-12-17T22:35:33.596Z,44.35
2022-12-17T22:42:30.516Z,41.57
2022-12-17T22:44:31.721Z,41.45
2022-12-17T22:44:40.585Z,40.63
2022-12-17T22:47:11.684Z,40.22
2022-12-17T22:50:02.016Z,40.93
2022-12-17T22:52:51.864Z,42.03
2022-12-17T22:55:41.874Z,41.76
2022-12-17T22:58:33.116Z,40.25
2022-12-17T23:01:23.307Z,39.47
2022-12-17T23:04:16.222Z,39.27
2022-12-17T23:07:04.815Z,37.86
2022-12-17T23:09:53.884Z,39.18
2022-12-17T23:12:55.434Z,38.50
2022-12-17T23:15:46.243Z,39.65
2022-12-17T23:18:35.584Z,38.32
2022-12-17T23:21:26.194Z,37.75
2022-12-17T23:24:16.107Z,36.29
2022-12-17T23:27:04.850Z,36.13
2022-12-17T23:29:53.071Z,36.20
2022-12-17T23:32:43.585Z,36.40
2022-12-17T23:35:32.147Z,35.32
2022-12-17T23:38:20.678Z,35.38
2022-12-17T23:41:10.708Z,35.39
2022-12-17T23:44:00.208Z,36.00
2022-12-17T23:46:48.645Z,35.58
2022-12-17T23:49:39.273Z,34.62
2022-12-17T23:52:28.008Z,34.54
2022-12-17T23:55:16.788Z,35.08
2022-12-17T23:58:04.998Z,34.80
